.
WxDataArchive / Data Records for 2011-10-23
2011-10-22 October 2011 2011-10-24

Data Records for Sunday, 23 October 2011

Time	Temp	Chill	HIndex	Humid	Dewpt	 Wind 	HiWind	WindDir	Rain 	Barom 
-----	----	-----	------	-----	-----	------	------	-------	-----	----- 
00:00	39.2	39.2	39.2	90	36.5	0	0	---	0.00	30.058 
00:05	39.2	39.2	39.2	90	36.5	0	0	---	0.00	30.058 
00:10	39.2	39.2	39.2	90	36.5	0	0	---	0.00	30.058 
00:15	39.1	39.1	39.1	90	36.4	0	0	---	0.00	30.047 
00:20	39.1	39.1	39.1	90	36.4	0	0	---	0.00	30.047 
00:25	38.9	38.9	38.9	91	36.5	0	0	---	0.00	30.047 
00:30	38.9	38.9	38.9	91	36.5	0	0	---	0.00	30.044 
00:35	38.8	38.8	38.8	91	36.4	0	0	---	0.00	30.044 
00:40	38.8	38.8	38.8	91	36.4	0	0	---	0.00	30.044 
00:45	38.8	38.8	38.8	91	36.4	0	0	---	0.00	30.043 
00:50	38.6	38.6	38.6	91	36.2	0	0	---	0.00	30.043 
00:55	38.6	38.6	38.6	91	36.2	0	0	---	0.00	30.043 
01:00	38.6	38.6	38.6	91	36.2	0	0	---	0.00	30.042 
01:05	38.5	38.5	38.5	91	36.1	0	0	---	0.00	30.042 
01:10	38.5	38.5	38.5	92	36.4	0	0	---	0.00	30.042 
01:15	38.3	38.3	38.3	92	36.2	0	0	---	0.00	30.037 
01:20	38.3	38.3	38.3	92	36.2	0	0	---	0.00	30.037 
01:25	38.2	38.2	38.2	92	36.1	0	0	---	0.00	30.037 
01:30	38.0	38.0	38.0	92	35.9	0	0	---	0.00	30.034 
01:35	38.0	38.0	38.0	92	35.9	0	0	---	0.00	30.034 
01:40	37.9	37.9	37.9	92	35.8	0	0	---	0.00	30.034 
01:45	37.9	37.9	37.9	92	35.8	0	0	---	0.00	30.028 
01:50	37.8	37.8	37.8	92	35.7	0	0	---	0.00	30.028 
01:55	37.8	37.8	37.8	92	35.7	0	0	---	0.00	30.028 
02:00	37.6	37.6	37.6	92	35.5	0	0	---	0.00	30.024 
02:05	37.6	37.6	37.6	92	35.5	0	0	---	0.00	30.024 
02:10	37.5	37.5	37.5	92	35.4	0	0	---	0.00	30.024 
02:15	37.3	37.3	37.3	92	35.2	0	0	---	0.00	30.015 
02:20	37.3	37.3	37.3	92	35.2	0	0	---	0.00	30.015 
02:25	37.3	37.3	37.3	92	35.2	0	0	---	0.00	30.015 
02:30	37.3	37.3	37.3	92	35.2	0	0	---	0.00	30.013 
02:35	37.2	37.2	37.2	92	35.1	0	0	---	0.00	30.013 
02:40	37.0	37.0	37.0	92	34.9	0	0	---	0.00	30.013 
02:45	37.0	37.0	37.0	92	34.9	0	0	---	0.00	30.012 
02:50	36.9	36.9	36.9	92	34.8	0	0	---	0.00	30.012 
02:55	36.9	36.9	36.9	92	34.8	0	0	---	0.00	30.012 
03:00	36.9	36.9	36.9	92	34.8	0	0	---	0.00	30.013 
03:05	36.9	36.9	36.9	92	34.8	0	0	---	0.00	30.013 
03:10	36.9	36.9	36.9	93	35.1	0	0	---	0.00	30.013 
03:15	36.9	36.9	36.9	93	35.1	0	0	---	0.00	30.014 
03:20	36.9	36.9	36.9	93	35.1	0	0	---	0.00	30.014 
03:25	36.8	36.8	36.8	93	35.0	0	0	---	0.00	30.014 
03:30	36.8	36.8	36.8	93	35.0	0	0	---	0.00	30.014 
03:35	36.6	36.6	36.6	93	34.8	0	0	---	0.00	30.014 
03:40	36.6	36.6	36.6	93	34.8	0	0	---	0.00	30.014 
03:45	36.6	36.6	36.6	93	34.8	0	0	---	0.00	30.019 
03:50	36.6	36.6	36.6	93	34.8	0	0	---	0.00	30.019 
03:55	36.5	36.5	36.5	93	34.7	0	0	---	0.00	30.019 
04:00	36.5	36.5	36.5	93	34.7	0	0	---	0.00	30.019 
04:05	36.3	36.3	36.3	93	34.5	0	0	---	0.00	30.019 
04:10	36.3	36.3	36.3	93	34.5	0	0	---	0.00	30.019 
04:15	36.3	36.3	36.3	93	34.5	0	0	---	0.00	30.018 
04:20	36.3	36.3	36.3	93	34.5	0	0	---	0.00	30.018 
04:25	36.2	36.2	36.2	93	34.4	0	0	---	0.00	30.018 
04:30	36.0	36.0	36.0	93	34.2	0	0	---	0.00	30.015 
04:35	36.0	36.0	36.0	93	34.2	0	0	---	0.00	30.015 
04:40	36.0	36.0	36.0	93	34.2	0	0	---	0.00	30.015 
04:45	35.9	35.9	35.9	93	34.1	0	0	---	0.00	30.015 
04:50	35.9	35.9	35.9	93	34.1	0	0	---	0.00	30.015 
04:55	35.9	35.9	35.9	93	34.1	0	0	---	0.00	30.015 
05:00	36.0	36.0	36.0	93	34.2	0	0	---	0.00	30.021 
05:05	36.3	36.3	36.3	94	34.7	0	0	---	0.00	30.021 
05:10	36.6	36.6	36.6	94	35.0	0	0	---	0.00	30.021 
05:15	36.9	36.9	36.9	94	35.3	0	0	---	0.00	30.021 
05:20	37.3	37.3	37.3	94	35.7	0	0	---	0.00	30.021 
05:25	37.8	37.8	37.8	94	36.2	0	0	---	0.00	30.021 
05:30	38.2	38.2	38.2	95	36.9	0	0	---	0.00	30.018 
05:35	38.6	38.6	38.6	95	37.3	0	0	---	0.00	30.018 
05:40	38.9	38.9	38.9	95	37.6	0	0	---	0.00	30.018 
05:45	39.1	39.1	39.1	94	37.5	0	0	---	0.00	30.020 
05:50	39.3	39.3	39.3	94	37.7	0	0	---	0.00	30.020 
05:55	39.5	39.5	39.5	94	37.9	0	0	---	0.00	30.020 
06:00	39.5	39.5	39.5	94	37.9	0	0	---	0.00	30.016 
06:05	39.6	39.6	39.6	94	38.0	0	0	---	0.00	30.016 
06:10	39.8	39.8	39.8	93	37.9	0	0	---	0.00	30.016 
06:15	39.8	39.8	39.8	93	37.9	0	0	---	0.00	30.016 
06:20	39.8	39.8	39.8	93	37.9	0	0	---	0.00	30.016 
06:25	39.9	39.9	39.9	93	38.0	0	0	---	0.00	30.016 
06:30	39.8	39.8	39.8	93	37.9	0	0	---	0.00	30.016 
06:35	39.8	39.8	39.8	93	37.9	0	0	---	0.00	30.016 
06:40	39.6	39.6	39.6	93	37.7	0	0	---	0.00	30.016 
06:45	39.5	39.5	39.5	93	37.6	0	0	---	0.00	30.014 
06:50	39.5	39.5	39.5	93	37.6	0	0	---	0.00	30.014 
06:55	39.3	39.3	39.3	93	37.4	0	0	---	0.00	30.014 
07:00	39.3	39.3	39.3	93	37.4	0	0	---	0.00	30.017 
07:05	39.2	39.2	39.2	93	37.3	0	0	---	0.00	30.017 
07:10	39.2	39.2	39.2	93	37.3	0	0	---	0.00	30.017 
07:15	39.2	39.2	39.2	93	37.3	0	0	---	0.00	30.021 
07:20	39.3	39.3	39.3	93	37.4	0	0	---	0.00	30.021 
07:25	39.3	39.3	39.3	93	37.4	0	0	---	0.00	30.021 
07:30	39.5	39.5	39.5	93	37.6	0	0	---	0.00	30.021 
07:35	39.8	39.8	39.8	93	37.9	0	0	---	0.00	30.021 
07:40	39.9	39.9	39.9	92	37.8	0	0	---	0.00	30.021 
07:45	40.1	40.1	40.1	92	38.0	0	0	---	0.00	30.020 
07:50	40.2	40.2	40.2	92	38.1	0	0	---	0.00	30.020 
07:55	40.3	40.3	40.3	92	38.2	0	0	---	0.00	30.020 
08:00	40.6	40.6	40.6	92	38.5	0	0	---	0.00	30.018 
08:05	40.9	40.9	40.9	91	38.5	0	0	---	0.00	30.018 
08:10	40.9	40.9	40.9	91	38.5	0	0	---	0.00	30.018 
08:15	40.9	40.9	40.9	91	38.5	0	0	---	0.00	30.021 
08:20	41.1	41.1	41.1	90	38.4	0	0	---	0.00	30.021 
08:25	41.2	41.2	41.2	89	38.2	0	0	---	0.00	30.021 
08:30	41.5	41.5	41.5	89	38.5	0	0	---	0.00	30.021 
08:35	41.8	41.8	41.8	88	38.5	0	0	---	0.00	30.021 
08:40	42.1	42.1	42.1	87	38.5	0	0	---	0.00	30.021 
08:45	42.5	42.5	42.5	86	38.6	0	0	---	0.00	30.025 
08:50	42.8	42.8	42.8	85	38.6	0	0	---	0.00	30.025 
08:55	43.1	43.1	43.1	84	38.6	0	1	338	0.00	30.025 
09:00	43.3	43.3	43.3	84	38.8	0	1	45	0.00	30.028 
09:05	43.6	43.6	43.6	83	38.8	0	0	---	0.00	30.028 
09:10	43.8	43.8	43.8	82	38.7	0	0	---	0.00	30.028 
09:15	44.1	44.1	44.1	81	38.6	0	0	---	0.00	30.030 
09:20	44.3	44.3	44.3	81	38.8	0	1	45	0.00	30.030 
09:25	44.8	44.8	44.8	80	39.0	0	1	45	0.00	30.030 
09:30	45.2	45.2	45.2	79	39.1	0	3	248	0.00	30.029 
09:35	45.5	45.5	45.5	78	39.0	0	1	248	0.00	30.029 
09:40	46.0	46.0	46.0	77	39.2	0	3	248	0.00	30.029 
09:45	46.5	46.5	46.5	76	39.3	0	1	248	0.00	30.030 
09:50	47.1	47.1	47.1	75	39.6	0	1	248	0.00	30.030 
09:55	47.4	47.4	47.4	74	39.5	0	2	248	0.00	30.030 
10:00	47.9	47.9	47.9	73	39.7	0	3	248	0.00	30.028 
10:05	48.3	48.3	48.3	72	39.7	0	3	248	0.00	30.028 
10:10	48.6	48.6	48.6	71	39.6	0	1	248	0.00	30.028 
10:15	48.9	48.9	48.9	71	39.9	0	1	248	0.00	30.029 
10:20	49.2	49.2	49.2	71	40.2	0	2	248	0.00	30.029 
10:25	49.8	49.8	49.8	71	40.8	0	2	248	0.00	30.029 
10:30	50.4	50.4	50.4	69	40.6	0	2	248	0.00	30.023 
10:35	51.3	51.3	51.3	67	40.7	0	5	270	0.00	30.023 
10:40	52.3	52.3	52.3	65	40.9	0	5	270	0.00	30.023 
10:45	53.2	53.2	53.2	65	41.7	0	2	248	0.00	30.016 
10:50	53.8	53.8	53.8	63	41.5	0	4	270	0.00	30.016 
10:55	54.1	54.1	54.1	62	41.4	1	3	248	0.00	30.016 
11:00	54.4	54.4	54.4	62	41.7	1	5	270	0.00	30.018 
11:05	54.8	54.8	54.8	61	41.6	0	2	270	0.00	30.018 
11:10	55.0	55.0	55.0	60	41.4	0	2	270	0.00	30.018 
11:15	55.0	55.0	55.0	59	40.9	1	3	270	0.00	30.019 
11:20	55.1	55.1	55.1	60	41.5	1	3	248	0.00	30.019 
11:25	55.3	55.3	55.3	58	40.8	2	4	270	0.00	30.019 
11:30	55.4	55.4	55.4	60	41.7	2	4	270	0.00	30.018 
11:35	55.7	55.7	55.7	59	41.6	2	4	248	0.00	30.018 
11:40	55.9	55.9	55.9	60	42.2	1	4	270	0.00	30.018 
11:45	56.2	56.2	56.2	59	42.1	1	4	292	0.00	30.018 
11:50	56.6	56.6	56.6	59	42.4	1	3	292	0.00	30.018 
11:55	57.0	57.0	57.0	59	42.8	1	4	248	0.00	30.018 
12:00	57.3	57.3	57.3	58	42.6	1	5	248	0.00	30.012 
12:05	57.5	57.5	57.5	57	42.4	1	3	248	0.00	30.012 
12:10	57.6	57.6	57.6	58	42.9	1	3	248	0.00	30.012 
12:15	58.0	58.0	58.0	58	43.3	1	3	248	0.00	30.010 
12:20	58.1	58.1	58.1	57	42.9	1	3	248	0.00	30.010 
12:25	58.3	58.3	58.3	58	43.6	1	3	248	0.00	30.010 
12:30	58.6	58.6	58.6	56	43.0	2	4	248	0.00	30.009 
12:35	58.7	58.7	58.7	58	44.0	1	3	248	0.00	30.009 
12:40	58.9	58.9	58.9	55	42.8	1	3	248	0.00	30.009 
12:45	59.0	59.0	59.0	56	43.3	1	3	248	0.00	30.006 
12:50	59.3	59.3	59.3	56	43.6	1	4	248	0.00	30.006 
12:55	59.6	59.6	59.6	56	43.9	1	4	248	0.00	30.006 
13:00	60.1	60.1	60.1	56	44.3	1	3	248	0.00	29.995 
13:05	60.5	60.5	60.5	54	43.8	1	3	248	0.00	29.995 
13:10	60.9	60.9	60.9	54	44.1	1	3	248	0.00	29.995 
13:15	60.9	60.9	60.9	53	43.7	0	3	248	0.00	29.992 
13:20	61.0	61.0	61.0	55	44.7	0	1	248	0.00	29.992 
13:25	61.0	61.0	61.0	52	43.2	1	3	248	0.00	29.992 
13:30	60.7	60.7	60.7	52	43.0	1	2	248	0.00	29.988 
13:35	60.9	60.9	60.9	53	43.7	1	2	248	0.00	29.988 
13:40	61.2	61.2	61.2	53	43.9	1	2	248	0.00	29.988 
13:45	61.6	61.6	61.6	53	44.3	0	2	248	0.00	29.978 
13:50	62.1	62.1	62.1	54	45.3	0	2	248	0.00	29.978 
13:55	62.4	62.4	62.4	53	45.0	0	2	248	0.00	29.978 
14:00	62.7	62.7	62.7	51	44.3	0	3	248	0.00	29.976 
14:05	62.9	62.9	62.9	51	44.5	1	4	248	0.00	29.976 
14:10	63.1	63.1	63.1	52	45.2	0	3	68	0.00	29.976 
14:15	63.2	63.2	63.2	52	45.3	0	2	22	0.00	29.973 
14:20	63.5	63.5	63.5	50	44.5	1	2	90	0.00	29.973 
14:25	63.5	63.5	63.5	48	43.5	1	3	90	0.00	29.973 
14:30	63.5	63.5	63.5	49	44.0	1	3	248	0.00	29.967 
14:35	63.4	63.4	63.4	48	43.4	1	4	248	0.00	29.967 
14:40	63.4	63.4	63.4	46	42.3	1	3	248	0.00	29.967 
14:45	63.4	63.4	63.4	48	43.4	0	3	248	0.00	29.963 
14:50	63.4	63.4	63.4	50	44.4	0	1	248	0.00	29.963 
14:55	63.5	63.5	63.5	48	43.5	1	3	248	0.00	29.963 
15:00	63.7	63.7	63.7	47	43.1	1	3	248	0.00	29.959 
15:05	63.9	63.9	63.9	47	43.3	1	5	270	0.00	29.959 
15:10	63.9	63.9	63.9	47	43.3	2	4	248	0.00	29.959 
15:15	64.0	64.0	64.0	46	42.8	1	3	248	0.00	29.958 
15:20	64.2	64.2	64.2	46	43.0	1	3	248	0.00	29.958 
15:25	64.3	64.3	64.3	43	41.3	2	4	248	0.00	29.958 
15:30	64.2	64.2	64.2	45	42.4	1	4	248	0.00	29.954 
15:35	64.2	64.2	64.2	46	43.0	1	3	248	0.00	29.954 
15:40	64.3	64.3	64.3	45	42.5	0	2	248	0.00	29.954 
15:45	64.5	64.5	64.5	44	42.1	0	2	248	0.00	29.945 
15:50	64.7	64.7	64.7	42	41.1	1	3	248	0.00	29.945 
15:55	64.8	64.8	64.8	44	42.4	0	4	248	0.00	29.945 
16:00	65.0	65.0	65.0	41	40.7	2	4	248	0.00	29.942 
16:05	64.7	64.7	64.7	42	41.1	1	4	292	0.00	29.942 
16:10	64.5	64.5	64.5	41	40.3	1	4	292	0.00	29.942 
16:15	64.5	64.5	64.5	42	40.9	1	3	292	0.00	29.942 
16:20	64.5	64.5	64.5	43	41.5	1	3	315	0.00	29.942 
16:25	64.7	64.7	64.7	43	41.7	1	3	315	0.00	29.942 
16:30	64.7	64.7	64.7	42	41.1	0	3	315	0.00	29.938 
16:35	64.7	64.7	64.7	40	39.8	1	3	292	0.00	29.938 
16:40	64.7	64.7	64.7	41	40.5	0	2	292	0.00	29.938 
16:45	64.7	64.7	64.7	39	39.2	1	4	270	0.00	29.935 
16:50	64.8	64.8	64.8	43	41.8	1	3	248	0.00	29.935 
16:55	64.7	64.7	64.7	40	39.8	1	5	270	0.00	29.935 
17:00	64.7	64.7	64.7	40	39.8	1	3	248	0.00	29.938 
17:05	64.7	64.7	64.7	39	39.2	0	2	248	0.00	29.938 
17:10	64.5	64.5	64.5	39	39.0	1	2	248	0.00	29.938 
17:15	64.5	64.5	64.5	40	39.6	1	4	248	0.00	29.934 
17:20	64.5	64.5	64.5	41	40.3	0	2	248	0.00	29.934 
17:25	64.3	64.3	64.3	41	40.1	0	2	248	0.00	29.934 
17:30	64.0	64.0	64.0	42	40.4	0	2	248	0.00	29.936 
17:35	63.5	63.5	63.5	42	40.0	0	2	248	0.00	29.936 
17:40	63.1	63.1	63.1	44	40.8	0	1	248	0.00	29.936 
17:45	62.6	62.6	62.6	44	40.4	0	1	248	0.00	29.940 
17:50	62.3	62.3	62.3	45	40.7	0	1	248	0.00	29.940 
17:55	62.0	62.0	62.0	45	40.4	0	1	248	0.00	29.940 
18:00	61.8	61.8	61.8	45	40.2	0	0	---	0.00	29.942 
18:05	61.5	61.5	61.5	46	40.5	0	0	---	0.00	29.942 
18:10	61.2	61.2	61.2	47	40.8	0	0	---	0.00	29.942 
18:15	60.7	60.7	60.7	47	40.3	0	0	---	0.00	29.947 
18:20	60.4	60.4	60.4	47	40.1	0	0	---	0.00	29.947 
18:25	59.9	59.9	59.9	48	40.2	0	0	---	0.00	29.947 
18:30	59.6	59.6	59.6	49	40.4	0	0	---	0.00	29.952 
18:35	59.3	59.3	59.3	50	40.7	0	0	---	0.00	29.952 
18:40	58.9	58.9	58.9	50	40.3	0	0	---	0.00	29.952 
18:45	58.7	58.7	58.7	50	40.1	0	0	---	0.00	29.958 
18:50	58.4	58.4	58.4	50	39.8	0	0	---	0.00	29.958 
18:55	58.1	58.1	58.1	52	40.6	0	0	---	0.00	29.958 
19:00	57.8	57.8	57.8	55	41.7	0	0	---	0.00	29.961 
19:05	57.3	57.3	57.3	57	42.2	0	0	---	0.00	29.961 
19:10	56.9	56.9	56.9	58	42.3	0	0	---	0.00	29.961 
19:15	56.6	56.6	56.6	57	41.5	0	0	---	0.00	29.957 
19:20	56.3	56.3	56.3	57	41.3	0	0	---	0.00	29.957 
19:25	56.2	56.2	56.2	57	41.2	0	0	---	0.00	29.957 
19:30	56.0	56.0	56.0	58	41.4	0	0	---	0.00	29.962 
19:35	55.9	55.9	55.9	58	41.3	0	0	---	0.00	29.962 
19:40	55.7	55.7	55.7	59	41.6	0	0	---	0.00	29.962 
19:45	55.6	55.6	55.6	58	41.1	0	0	---	0.00	29.963 
19:50	55.7	55.7	55.7	58	41.2	0	0	---	0.00	29.963 
19:55	55.9	55.9	55.9	57	40.9	0	0	---	0.00	29.963 
20:00	56.0	56.0	56.0	57	41.0	0	0	---	0.00	29.962 
20:05	56.2	56.2	56.2	57	41.2	0	0	---	0.00	29.962 
20:10	56.2	56.2	56.2	57	41.2	0	0	---	0.00	29.962 
20:15	56.3	56.3	56.3	57	41.3	0	0	---	0.00	29.960 
20:20	56.3	56.3	56.3	57	41.3	0	0	---	0.00	29.960 
20:25	56.3	56.3	56.3	57	41.3	0	0	---	0.00	29.960 
20:30	56.3	56.3	56.3	58	41.7	0	0	---	0.00	29.961 
20:35	56.2	56.2	56.2	58	41.6	0	0	---	0.00	29.961 
20:40	56.2	56.2	56.2	57	41.2	0	0	---	0.00	29.961 
20:45	56.0	56.0	56.0	57	41.0	0	0	---	0.00	29.961 
20:50	56.0	56.0	56.0	57	41.0	0	0	---	0.00	29.961 
20:55	55.9	55.9	55.9	58	41.3	0	0	---	0.00	29.961 
21:00	55.9	55.9	55.9	58	41.3	0	0	---	0.00	29.961 
21:05	55.7	55.7	55.7	58	41.2	0	0	---	0.00	29.961 
21:10	55.6	55.6	55.6	59	41.5	0	0	---	0.00	29.961 
21:15	55.4	55.4	55.4	58	40.9	0	1	248	0.00	29.955 
21:20	55.4	55.4	55.4	59	41.3	0	0	---	0.00	29.955 
21:25	55.3	55.3	55.3	59	41.2	0	0	---	0.00	29.955 
21:30	55.3	55.3	55.3	59	41.2	0	0	---	0.00	29.956 
21:35	55.1	55.1	55.1	60	41.5	0	0	---	0.00	29.956 
21:40	55.1	55.1	55.1	60	41.5	0	0	---	0.00	29.956 
21:45	55.0	55.0	55.0	60	41.4	0	0	---	0.00	29.956 
21:50	55.0	55.0	55.0	61	41.8	0	1	248	0.00	29.956 
21:55	55.0	55.0	55.0	61	41.8	0	1	248	0.00	29.956 
22:00	55.0	55.0	55.0	62	42.2	0	1	248	0.00	29.956 
22:05	55.1	55.1	55.1	63	42.7	0	1	248	0.00	29.956 
22:10	55.1	55.1	55.1	64	43.1	0	1	248	0.00	29.956 
22:15	55.1	55.1	55.1	65	43.5	0	1	248	0.00	29.950 
22:20	55.3	55.3	55.3	66	44.1	0	2	248	0.00	29.950 
22:25	55.4	55.4	55.4	67	44.6	0	2	248	0.00	29.950 
22:30	55.6	55.6	55.6	67	44.8	0	2	248	0.00	29.949 
22:35	55.6	55.6	55.6	68	45.2	0	2	248	0.00	29.949 
22:40	55.6	55.6	55.6	68	45.2	0	2	248	0.00	29.949 
22:45	55.4	55.4	55.4	69	45.4	0	1	248	0.00	29.949 
22:50	55.3	55.3	55.3	70	45.7	0	2	248	0.00	29.949 
22:55	55.1	55.1	55.1	71	45.9	0	0	---	0.00	29.949 
23:00	55.1	55.1	55.1	72	46.2	0	1	248	0.00	29.949 
23:05	55.1	55.1	55.1	73	46.6	0	1	248	0.00	29.949 
23:10	55.1	55.1	55.1	74	47.0	0	1	248	0.00	29.949 
23:15	55.3	55.3	55.3	74	47.2	0	2	248	0.00	29.943 
23:20	55.3	55.3	55.3	75	47.5	0	1	248	0.00	29.943 
23:25	55.3	55.3	55.3	75	47.5	0	3	248	0.00	29.943 
23:30	55.3	55.3	55.3	76	47.9	0	2	248	0.00	29.935 
23:35	55.1	55.1	55.1	77	48.0	0	3	248	0.00	29.935 
23:40	55.1	55.1	55.1	77	48.0	0	2	248	0.00	29.935 
23:45	55.0	55.0	55.0	78	48.3	0	1	248	0.00	29.932 
23:50	54.8	54.8	54.8	78	48.1	1	4	292	0.00	29.932 
23:55	54.7	54.7	54.7	79	48.3	1	5	248	0.00	29.932 

CoCoRaHS
IN-AL-39
A2 Web Hosting
Creative Commons License
GoDaddy
search engine by freefind advanced

loaded 2018-11-16 23:26:15 • last modified 2010-11-18 10:43:29
Privacy PolicyDisclaimer
• wx.awcolley.com is powered by PmWiki v.2002016 •
• all content (unless otherwise noted) © 2018 A W Colley